createdAt,value
2022-12-08T00:01:50.642Z,13.23
2022-12-08T00:04:27.845Z,12.70
2022-12-08T00:07:15.258Z,13.27
2022-12-08T00:09:45.789Z,13.85
2022-12-08T00:12:16.765Z,13.50
2022-12-08T00:14:47.330Z,12.48
2022-12-08T00:17:17.835Z,13.05
2022-12-08T00:19:47.957Z,13.85
2022-12-08T00:22:16.844Z,12.25
2022-12-08T00:24:47.886Z,11.85
2022-12-08T00:27:24.889Z,12.15
2022-12-08T00:29:55.623Z,11.77
2022-12-08T00:32:23.883Z,11.88
2022-12-08T00:34:54.361Z,10.10
2022-12-08T00:37:22.720Z,11.50
2022-12-08T00:39:51.258Z,10.65
2022-12-08T00:42:20.405Z,10.68
2022-12-08T00:44:49.787Z,9.18
2022-12-08T00:47:23.460Z,8.43
2022-12-08T00:49:55.747Z,8.45
2022-12-08T00:52:23.782Z,7.95
2022-12-08T00:54:51.797Z,7.63
2022-12-08T00:57:20.124Z,8.43
2022-12-08T00:59:49.475Z,7.20
2022-12-08T01:02:17.547Z,6.22
2022-12-08T01:04:45.860Z,4.30
2022-12-08T01:07:15.516Z,3.40
2022-12-08T01:09:43.570Z,2.50
2022-12-08T01:12:11.659Z,3.47
2022-12-08T01:14:39.619Z,2.95
2022-12-08T01:17:07.735Z,2.65
2022-12-08T01:19:35.814Z,3.60
2022-12-08T01:22:03.959Z,3.50
2022-12-08T01:24:33.513Z,3.53
2022-12-08T01:27:01.533Z,3.38
2022-12-08T01:29:29.563Z,2.85
2022-12-08T01:31:57.621Z,2.63
2022-12-08T01:34:25.631Z,2.65
2022-12-08T01:36:53.642Z,2.92
2022-12-08T01:39:21.828Z,2.28
2022-12-08T01:41:51.305Z,2.85
2022-12-08T01:45:04.738Z,3.17
2022-12-08T01:47:39.115Z,2.47
2022-12-08T01:50:11.876Z,2.58
2022-12-08T01:52:44.308Z,2.60
2022-12-08T01:55:18.085Z,2.95
2022-12-08T01:57:50.551Z,3.30
2022-12-08T02:00:21.947Z,2.80
2022-12-08T02:02:55.816Z,2.95
2022-12-08T02:07:55.579Z,2.50
2022-12-08T02:10:25.413Z,2.78
2022-12-08T02:12:57.577Z,2.60
2022-12-08T02:15:33.125Z,2.60
2022-12-08T02:18:14.905Z,2.25
2022-12-08T02:20:50.528Z,2.30
2022-12-08T02:23:26.320Z,2.78
2022-12-08T02:26:17.519Z,2.53
2022-12-08T02:29:24.016Z,2.33
2022-12-08T02:32:06.258Z,2.10
2022-12-08T02:34:45.339Z,2.30
2022-12-08T02:37:19.598Z,2.38
2022-12-08T02:39:55.164Z,2.55
2022-12-08T02:42:29.068Z,2.10
2022-12-08T02:47:29.598Z,1.80
2022-12-08T02:50:00.181Z,1.60
2022-12-08T02:52:42.839Z,1.48
2022-12-08T02:55:16.242Z,1.45
2022-12-08T02:57:57.913Z,0.88
2022-12-08T03:00:30.440Z,1.35
2022-12-08T03:03:10.689Z,0.98
2022-12-08T03:06:02.739Z,1.92
2022-12-08T03:08:36.403Z,1.90
2022-12-08T03:11:10.757Z,2.30
2022-12-08T03:13:43.502Z,2.22
2022-12-08T03:16:16.329Z,2.53
2022-12-08T03:18:49.127Z,2.10
2022-12-08T03:21:20.693Z,2.47
2022-12-08T03:23:51.947Z,2.08
2022-12-08T03:26:24.925Z,1.52
2022-12-08T03:28:52.993Z,2.10
2022-12-08T03:31:22.775Z,1.77
2022-12-08T03:33:53.853Z,2.22
2022-12-08T03:36:23.703Z,3.00
2022-12-08T03:38:54.503Z,2.83
2022-12-08T03:41:23.797Z,1.88
2022-12-08T03:43:53.659Z,1.95
2022-12-08T03:48:50.448Z,2.15
2022-12-08T03:51:18.604Z,1.80
2022-12-08T03:53:48.329Z,1.20
2022-12-08T03:56:20.858Z,1.50
2022-12-08T03:58:48.863Z,1.52
2022-12-08T04:01:16.871Z,1.92
2022-12-08T04:03:45.043Z,1.50
2022-12-08T04:06:13.261Z,1.55
2022-12-08T04:08:41.401Z,1.40
2022-12-08T04:11:11.273Z,1.80
2022-12-08T04:13:41.155Z,1.60
2022-12-08T04:16:10.356Z,1.80
2022-12-08T04:18:38.387Z,1.90
2022-12-08T04:21:06.732Z,1.70
2022-12-08T04:23:34.726Z,1.73
2022-12-08T04:26:02.752Z,1.60
2022-12-08T04:28:32.204Z,2.28
2022-12-08T04:31:00.519Z,2.08
2022-12-08T04:33:28.624Z,2.75
2022-12-08T04:35:56.676Z,3.03
2022-12-08T04:38:24.788Z,4.63
2022-12-08T04:40:53.000Z,5.38
2022-12-08T04:43:21.756Z,6.30
2022-12-08T04:45:51.174Z,6.30
2022-12-08T04:48:19.326Z,5.50
2022-12-08T04:50:47.436Z,4.32
2022-12-08T04:53:15.991Z,3.90
2022-12-08T04:55:45.522Z,3.70
2022-12-08T04:58:14.956Z,4.57
2022-12-08T05:00:43.209Z,3.58
2022-12-08T05:03:12.834Z,3.75
2022-12-08T05:05:40.888Z,3.30
2022-12-08T05:08:09.705Z,3.67
2022-12-08T05:10:38.039Z,4.18
2022-12-08T05:13:06.037Z,5.47
2022-12-08T05:15:34.066Z,4.50
2022-12-08T05:18:02.063Z,5.15
2022-12-08T05:20:31.455Z,5.90
2022-12-08T05:22:59.453Z,5.32
2022-12-08T05:25:27.495Z,3.65
2022-12-08T05:28:17.509Z,3.40
2022-12-08T05:30:43.463Z,2.90
2022-12-08T05:33:11.509Z,2.83
2022-12-08T05:35:41.109Z,2.20
2022-12-08T05:38:09.591Z,2.80
2022-12-08T05:40:39.608Z,3.03
2022-12-08T05:43:09.036Z,2.90
2022-12-08T05:45:37.336Z,2.45
2022-12-08T05:48:06.112Z,2.47
2022-12-08T05:50:35.324Z,2.80
2022-12-08T05:53:06.670Z,2.65
2022-12-08T05:55:34.714Z,2.17
2022-12-08T05:58:07.596Z,2.75
2022-12-08T06:00:36.187Z,2.50
2022-12-08T06:03:04.570Z,3.97
2022-12-08T06:05:34.355Z,4.05
2022-12-08T06:08:02.526Z,4.10
2022-12-08T06:10:32.099Z,3.95
2022-12-08T06:13:00.447Z,4.43
2022-12-08T06:15:28.727Z,4.97
2022-12-08T06:17:56.891Z,5.20
2022-12-08T06:20:24.984Z,6.07
2022-12-08T06:22:53.336Z,4.90
2022-12-08T06:25:22.142Z,6.22
2022-12-08T06:27:51.872Z,6.28
2022-12-08T06:30:20.168Z,6.50
2022-12-08T06:32:48.185Z,6.10
2022-12-08T06:35:16.164Z,7.47
2022-12-08T06:37:44.172Z,6.80
2022-12-08T06:40:12.976Z,8.68
2022-12-08T06:42:47.257Z,7.93
2022-12-08T06:45:18.339Z,8.45
2022-12-08T06:47:46.359Z,9.23
2022-12-08T06:50:14.970Z,9.48
2022-12-08T06:52:54.272Z,9.23
2022-12-08T06:55:58.806Z,8.38
2022-12-08T06:58:17.081Z,11.13
2022-12-08T07:00:46.820Z,14.02
2022-12-08T07:03:15.368Z,15.15
2022-12-08T07:05:46.431Z,16.95
2022-12-08T07:08:14.655Z,17.55
2022-12-08T07:10:42.828Z,22.98
2022-12-08T07:13:11.025Z,31.73
2022-12-08T07:15:39.055Z,22.58
2022-12-08T07:18:08.622Z,20.27
2022-12-08T07:20:38.770Z,12.43
2022-12-08T07:23:11.094Z,11.52
2022-12-08T07:25:39.258Z,12.35
2022-12-08T07:28:11.251Z,14.32
2022-12-08T07:30:39.905Z,15.88
2022-12-08T07:33:10.558Z,14.88
2022-12-08T07:35:38.702Z,16.05
2022-12-08T07:38:06.755Z,14.88
2022-12-08T07:40:34.764Z,12.75
2022-12-08T07:43:03.027Z,11.43
2022-12-08T07:45:57.040Z,10.02
2022-12-08T07:48:35.914Z,9.55
2022-12-08T07:54:31.039Z,8.70
2022-12-08T07:57:01.923Z,9.32
2022-12-08T07:59:29.913Z,11.07
2022-12-08T08:02:21.378Z,10.90
2022-12-08T08:04:51.418Z,11.32
2022-12-08T08:07:19.594Z,13.88
2022-12-08T08:09:47.590Z,14.85
2022-12-08T08:12:32.297Z,18.08
2022-12-08T08:15:01.183Z,18.15
2022-12-08T08:17:29.742Z,19.08
2022-12-08T08:19:59.469Z,24.27
2022-12-08T08:22:28.094Z,28.17
2022-12-08T08:25:39.278Z,26.40
2022-12-08T08:28:07.358Z,34.47
2022-12-08T08:30:35.331Z,31.88
2022-12-08T08:33:03.365Z,28.98
2022-12-08T08:35:32.802Z,28.48
2022-12-08T08:38:00.851Z,31.75
2022-12-08T08:40:28.822Z,26.10
2022-12-08T08:42:56.866Z,24.92
2022-12-08T08:45:24.831Z,29.65
2022-12-08T08:47:52.848Z,32.30
2022-12-08T08:50:37.170Z,21.98
2022-12-08T08:53:07.106Z,27.42
2022-12-08T08:55:35.091Z,30.05
2022-12-08T08:58:03.108Z,28.30
2022-12-08T09:00:31.077Z,29.52
2022-12-08T09:02:59.105Z,33.72
2022-12-08T09:05:27.195Z,30.95
2022-12-08T09:15:38.516Z,32.92
2022-12-08T09:18:07.805Z,26.38
2022-12-08T09:20:36.467Z,26.05
2022-12-08T09:23:04.527Z,27.08
2022-12-08T09:25:32.588Z,34.30
2022-12-08T09:28:02.088Z,33.60
2022-12-08T09:30:30.176Z,34.72
2022-12-08T09:32:58.221Z,30.63
2022-12-08T09:35:26.438Z,34.13
2022-12-08T09:37:54.554Z,30.60
2022-12-08T09:40:25.130Z,27.77
2022-12-08T09:42:58.797Z,32.53
2022-12-08T09:45:34.486Z,31.58
2022-12-08T09:48:07.809Z,30.90
2022-12-08T09:50:40.293Z,32.28
2022-12-08T09:53:14.815Z,33.97
2022-12-08T09:55:45.952Z,33.83
2022-12-08T09:58:22.927Z,34.50
2022-12-08T10:00:52.346Z,39.70
2022-12-08T10:03:23.325Z,39.38
2022-12-08T10:05:58.212Z,30.45
2022-12-08T10:08:30.460Z,29.98
2022-12-08T10:11:01.824Z,36.30
2022-12-08T10:13:40.003Z,32.80
2022-12-08T10:16:26.714Z,34.17
2022-12-08T10:19:10.505Z,29.45
2022-12-08T10:21:40.751Z,29.75
2022-12-08T10:24:17.482Z,33.22
2022-12-08T10:26:46.904Z,37.58
2022-12-08T10:29:37.967Z,38.53
2022-12-08T10:32:16.730Z,33.70
2022-12-08T10:35:01.396Z,35.15
2022-12-08T10:37:29.536Z,33.38
2022-12-08T10:40:02.850Z,31.95
2022-12-08T10:42:37.339Z,33.53
2022-12-08T10:45:24.165Z,32.47
2022-12-08T10:48:01.796Z,34.95
2022-12-08T10:50:33.230Z,35.55
2022-12-08T10:53:03.408Z,33.35
2022-12-08T10:55:42.186Z,35.42
2022-12-08T10:58:25.922Z,31.88
2022-12-08T11:00:56.492Z,34.65
2022-12-08T11:03:29.678Z,34.92
2022-12-08T11:06:02.812Z,30.90
2022-12-08T11:08:33.634Z,30.80
2022-12-08T11:11:01.722Z,33.53
2022-12-08T11:13:30.175Z,32.17
2022-12-08T11:15:58.803Z,32.90
2022-12-08T11:18:30.805Z,33.92
2022-12-08T11:21:01.966Z,32.10
2022-12-08T11:23:31.505Z,32.33
2022-12-08T11:26:06.281Z,31.75
2022-12-08T11:28:34.475Z,31.48
2022-12-08T11:31:13.287Z,33.22
2022-12-08T11:33:45.486Z,33.40
2022-12-08T11:36:16.981Z,36.55
2022-12-08T11:38:50.560Z,35.00
2022-12-08T11:41:21.295Z,31.50
2022-12-08T11:43:56.880Z,36.90
2022-12-08T11:46:27.625Z,36.35
2022-12-08T11:49:06.699Z,33.92
2022-12-08T11:51:38.200Z,35.22
2022-12-08T11:54:23.444Z,33.83
2022-12-08T11:56:55.048Z,37.20
2022-12-08T11:59:29.700Z,34.67
2022-12-08T12:01:59.475Z,32.25
2022-12-08T12:04:34.318Z,34.42
2022-12-08T12:07:38.938Z,34.60
2022-12-08T12:10:29.080Z,67.10
2022-12-08T12:13:15.267Z,34.95
2022-12-08T12:16:16.345Z,34.35
2022-12-08T12:18:48.455Z,34.63
2022-12-08T12:21:22.936Z,33.97
2022-12-08T12:23:55.681Z,36.97
2022-12-08T12:26:26.195Z,36.95
2022-12-08T12:28:58.120Z,35.55
2022-12-08T12:31:30.302Z,36.90
2022-12-08T12:34:08.249Z,37.00
2022-12-08T12:36:49.545Z,37.10
2022-12-08T12:39:21.326Z,43.25
2022-12-08T12:41:53.248Z,38.63
2022-12-08T12:44:38.815Z,36.40
2022-12-08T12:47:12.328Z,36.65
2022-12-08T12:50:08.346Z,36.95
2022-12-08T12:52:43.072Z,34.40
2022-12-08T12:55:46.114Z,34.88
2022-12-08T12:58:24.705Z,33.83
2022-12-08T13:01:30.322Z,32.45
2022-12-08T13:04:07.265Z,30.77
2022-12-08T13:06:39.558Z,29.80
2022-12-08T13:09:21.501Z,32.17
2022-12-08T13:11:54.388Z,33.85
2022-12-08T13:14:37.251Z,33.42
2022-12-08T13:17:11.689Z,33.92
2022-12-08T13:19:41.507Z,31.70
2022-12-08T13:22:46.677Z,30.42
2022-12-08T13:25:48.249Z,28.55
2022-12-08T13:28:25.336Z,32.63
2022-12-08T13:30:54.902Z,33.90
2022-12-08T13:33:32.180Z,34.25
2022-12-08T13:36:19.831Z,35.45
2022-12-08T13:38:49.337Z,35.25
2022-12-08T13:41:23.697Z,31.05
2022-12-08T13:44:50.341Z,30.77
2022-12-08T13:47:25.106Z,30.23
2022-12-08T14:01:01.707Z,30.60
2022-12-08T14:03:30.082Z,34.45
2022-12-08T14:06:13.867Z,33.53
2022-12-08T14:09:00.310Z,37.42
2022-12-08T14:11:35.515Z,32.78
2022-12-08T14:14:09.645Z,32.22
2022-12-08T14:16:40.800Z,33.85
2022-12-08T14:19:18.835Z,34.28
2022-12-08T14:21:55.719Z,28.25
2022-12-08T14:24:24.319Z,22.85
2022-12-08T14:26:55.195Z,27.30
2022-12-08T14:29:44.039Z,24.67
2022-12-08T14:32:25.637Z,24.45
2022-12-08T14:35:00.317Z,24.10
2022-12-08T14:37:32.117Z,23.77
2022-12-08T14:40:04.070Z,25.27
2022-12-08T14:42:32.406Z,25.73
2022-12-08T14:45:06.986Z,25.38
2022-12-08T14:47:35.958Z,26.58
2022-12-08T14:50:06.145Z,25.77
2022-12-08T14:52:34.436Z,26.33
2022-12-08T14:55:02.530Z,26.77
2022-12-08T14:57:36.440Z,27.73
2022-12-08T15:02:48.548Z,42.20
2022-12-08T15:05:19.688Z,29.50
2022-12-08T15:07:50.252Z,28.67
2022-12-08T15:10:24.904Z,48.63
2022-12-08T15:13:05.923Z,31.08
2022-12-08T15:15:48.592Z,26.60
2022-12-08T15:18:18.984Z,28.70
2022-12-08T15:20:50.146Z,28.10
2022-12-08T15:23:26.105Z,29.90
2022-12-08T15:25:54.462Z,32.15
2022-12-08T15:28:29.403Z,33.67
2022-12-08T15:30:59.940Z,45.22
2022-12-08T15:33:28.840Z,37.13
2022-12-08T15:35:56.831Z,37.25
2022-12-08T15:38:26.911Z,34.78
2022-12-08T15:40:59.012Z,36.00
2022-12-08T15:43:27.224Z,30.35
2022-12-08T15:45:59.909Z,30.02
2022-12-08T15:48:31.548Z,28.10
2022-12-08T15:51:00.024Z,25.15
2022-12-08T15:53:30.390Z,24.38
2022-12-08T15:58:57.828Z,36.97
2022-12-08T16:01:27.068Z,35.90
2022-12-08T16:09:39.629Z,36.05
2022-12-08T16:13:13.428Z,33.95
2022-12-08T16:18:16.654Z,30.02
2022-12-08T16:23:43.023Z,26.40
2022-12-08T16:26:35.613Z,26.95
2022-12-08T16:29:01.993Z,27.42
2022-12-08T16:31:30.553Z,30.17
2022-12-08T16:33:59.010Z,29.77
2022-12-08T16:36:28.451Z,31.60
2022-12-08T16:38:56.479Z,33.65
2022-12-08T16:41:42.305Z,29.75
2022-12-08T16:44:10.389Z,28.73
2022-12-08T16:46:38.448Z,28.10
2022-12-08T16:49:10.212Z,22.77
2022-12-08T16:51:39.745Z,19.92
2022-12-08T16:54:07.765Z,19.35
2022-12-08T16:56:36.117Z,19.52
2022-12-08T16:59:21.076Z,20.13
2022-12-08T17:01:49.184Z,24.33
2022-12-08T17:04:32.895Z,29.10
2022-12-08T17:07:02.467Z,21.25
2022-12-08T17:09:32.634Z,22.92
2022-12-08T17:12:03.966Z,22.08
2022-12-08T17:14:36.431Z,23.65
2022-12-08T17:17:05.393Z,36.75
2022-12-08T17:19:38.341Z,36.65
2022-12-08T17:22:09.430Z,32.80
2022-12-08T17:24:38.547Z,33.70
2022-12-08T17:27:07.477Z,34.20
2022-12-08T17:29:38.294Z,36.03
2022-12-08T17:32:07.592Z,40.47
2022-12-08T17:34:36.040Z,46.20
2022-12-08T17:37:05.323Z,56.17
2022-12-08T17:39:35.931Z,52.30
2022-12-08T17:42:04.433Z,44.20
2022-12-08T17:44:33.623Z,48.35
2022-12-08T17:47:03.643Z,45.78
2022-12-08T17:49:35.177Z,47.20
2022-12-08T17:52:07.091Z,47.67
2022-12-08T17:54:40.851Z,56.03
2022-12-08T17:57:09.352Z,44.75
2022-12-08T17:59:37.572Z,50.33
2022-12-08T18:02:06.377Z,46.10
2022-12-08T18:04:35.067Z,48.03
2022-12-08T18:07:04.926Z,49.95
2022-12-08T18:09:33.963Z,57.75
2022-12-08T18:12:03.980Z,56.47
2022-12-08T18:14:32.483Z,51.50
2022-12-08T18:17:01.446Z,49.40
2022-12-08T18:19:30.413Z,61.05
2022-12-08T18:21:58.987Z,49.95
2022-12-08T18:24:27.009Z,39.88
2022-12-08T18:26:56.327Z,36.58
2022-12-08T18:29:26.589Z,40.88
2022-12-08T18:31:54.724Z,53.47
2022-12-08T18:34:22.698Z,51.17
2022-12-08T18:36:50.712Z,45.70
2022-12-08T18:39:23.428Z,41.97
2022-12-08T18:41:51.580Z,38.55
2022-12-08T18:44:19.765Z,43.85
2022-12-08T18:46:50.157Z,45.92
2022-12-08T18:49:22.929Z,43.25
2022-12-08T18:51:51.004Z,42.65
2022-12-08T18:54:22.091Z,44.97
2022-12-08T18:56:56.622Z,42.78
2022-12-08T18:59:24.643Z,42.58
2022-12-08T19:01:54.195Z,42.15
2022-12-08T19:04:29.875Z,39.25
2022-12-08T19:06:59.172Z,41.13
2022-12-08T19:09:29.152Z,39.53
2022-12-08T19:11:58.442Z,37.65
2022-12-08T19:14:28.428Z,33.58
2022-12-08T19:16:58.860Z,29.55
2022-12-08T19:19:27.779Z,31.58
2022-12-08T19:21:56.340Z,31.20
2022-12-08T19:24:24.624Z,31.90
2022-12-08T19:26:52.739Z,30.63
2022-12-08T19:29:20.778Z,30.60
2022-12-08T19:31:49.050Z,29.80
2022-12-08T19:34:18.572Z,27.77
2022-12-08T19:36:46.677Z,28.85
2022-12-08T19:39:37.224Z,30.27
2022-12-08T19:42:24.571Z,32.20
2022-12-08T19:44:55.199Z,30.10
2022-12-08T19:47:25.052Z,29.35
2022-12-08T19:50:15.303Z,31.40
2022-12-08T19:52:43.522Z,28.65
2022-12-08T19:55:11.873Z,33.03
2022-12-08T19:57:39.921Z,34.58
2022-12-08T20:00:10.436Z,33.58
2022-12-08T20:02:38.866Z,40.75
2022-12-08T20:05:09.861Z,32.08
2022-12-08T20:07:38.248Z,34.90
2022-12-08T20:10:09.490Z,36.05
2022-12-08T20:12:39.092Z,31.75
2022-12-08T20:15:09.878Z,32.90
2022-12-08T20:17:38.049Z,29.50
2022-12-08T20:20:09.883Z,30.33
2022-12-08T20:22:38.288Z,33.90
2022-12-08T20:25:06.908Z,29.92
2022-12-08T20:27:34.910Z,31.45
2022-12-08T20:30:03.048Z,37.80
2022-12-08T20:32:31.333Z,43.42
2022-12-08T20:35:00.778Z,40.50
2022-12-08T20:37:30.360Z,36.55
2022-12-08T20:39:58.493Z,42.17
2022-12-08T20:42:26.595Z,37.92
2022-12-08T20:44:54.583Z,37.30
2022-12-08T20:47:22.697Z,36.60
2022-12-08T20:49:51.776Z,39.45
2022-12-08T20:52:19.906Z,37.08
2022-12-08T20:54:49.645Z,32.97
2022-12-08T20:57:17.800Z,27.20
2022-12-08T20:59:46.088Z,29.33
2022-12-08T21:02:14.197Z,28.25
2022-12-08T21:04:42.459Z,28.42
2022-12-08T21:07:10.980Z,30.30
2022-12-08T21:09:39.325Z,29.38
2022-12-08T21:12:09.081Z,27.73
2022-12-08T21:14:37.951Z,27.20
2022-12-08T21:17:06.152Z,28.65
2022-12-08T21:19:34.383Z,28.13
2022-12-08T21:22:02.480Z,30.00
2022-12-08T21:24:34.427Z,31.88
2022-12-08T21:27:03.268Z,33.78
2022-12-08T21:29:32.784Z,32.65
2022-12-08T21:32:01.333Z,31.33
2022-12-08T21:34:34.244Z,31.33
2022-12-08T21:37:02.788Z,30.23
2022-12-08T21:39:31.129Z,28.05
2022-12-08T21:42:17.994Z,30.02
2022-12-08T21:44:49.932Z,32.78
2022-12-08T21:47:18.136Z,33.72
2022-12-08T21:49:47.136Z,33.25
2022-12-08T21:52:15.704Z,34.35
2022-12-08T21:54:45.531Z,37.00
2022-12-08T21:57:15.950Z,32.50
2022-12-08T21:59:44.095Z,33.88
2022-12-08T22:02:19.582Z,30.40
2022-12-08T22:04:50.880Z,31.48
2022-12-08T22:07:21.105Z,32.13
2022-12-08T22:09:49.445Z,33.75
2022-12-08T22:12:18.710Z,29.75
2022-12-08T22:15:18.003Z,27.45
2022-12-08T22:17:47.725Z,30.30
2022-12-08T22:20:17.250Z,30.08
2022-12-08T22:22:46.047Z,28.48
2022-12-08T22:25:14.536Z,29.83
2022-12-08T22:27:44.376Z,28.83
2022-12-08T22:30:18.143Z,31.20
2022-12-08T22:32:49.222Z,28.27
2022-12-08T22:35:18.690Z,29.55
2022-12-08T22:37:52.101Z,28.25
2022-12-08T22:40:24.201Z,28.42
2022-12-08T22:42:56.233Z,28.83
2022-12-08T22:45:28.598Z,28.08
2022-12-08T22:48:07.878Z,25.70
2022-12-08T22:50:39.658Z,28.75
2022-12-08T22:53:09.316Z,27.65
2022-12-08T22:55:45.245Z,27.30
2022-12-08T22:58:21.996Z,29.17
2022-12-08T23:03:40.965Z,26.10
2022-12-08T23:06:13.487Z,25.80
2022-12-08T23:08:43.096Z,25.05
2022-12-08T23:11:14.437Z,24.83
2022-12-08T23:13:42.720Z,26.08
2022-12-08T23:16:12.590Z,25.08
2022-12-08T23:18:44.969Z,27.13
2022-12-08T23:21:15.729Z,22.98
2022-12-08T23:23:46.905Z,26.65
2022-12-08T23:26:23.358Z,26.00
2022-12-08T23:28:52.305Z,28.05
2022-12-08T23:31:21.000Z,24.25
2022-12-08T23:33:50.700Z,22.70
2022-12-08T23:36:22.063Z,24.58
2022-12-08T23:38:54.431Z,25.83
2022-12-08T23:44:09.261Z,26.33
2022-12-08T23:46:37.390Z,26.30
2022-12-08T23:49:07.739Z,23.98
2022-12-08T23:51:35.946Z,22.35
2022-12-08T23:54:07.555Z,22.83
2022-12-08T23:56:35.842Z,23.33
2022-12-08T23:59:04.195Z,25.25
